createdAt,value
2018-09-27T00:00:20.167Z,13.30
2018-09-27T00:02:48.509Z,13.20
2018-09-27T00:05:17.092Z,13.20
2018-09-27T00:07:45.522Z,13.20
2018-09-27T00:10:13.848Z,13.10
2018-09-27T00:12:42.177Z,13.10
2018-09-27T00:15:10.576Z,13.10
2018-09-27T00:17:38.940Z,13.10
2018-09-27T00:20:07.429Z,13.10
2018-09-27T00:22:35.869Z,13.10
2018-09-27T00:25:04.361Z,13.10
2018-09-27T00:27:32.650Z,13.00
2018-09-27T00:30:00.989Z,13.00
2018-09-27T00:32:29.337Z,13.00
2018-09-27T00:34:57.721Z,13.00
2018-09-27T00:37:26.109Z,13.00
2018-09-27T00:39:54.565Z,12.90
2018-09-27T00:42:22.908Z,12.90
2018-09-27T00:44:51.268Z,12.90
2018-09-27T00:47:19.621Z,12.90
2018-09-27T00:49:47.995Z,12.90
2018-09-27T00:52:16.606Z,12.80
2018-09-27T00:54:45.060Z,12.80
2018-09-27T00:57:13.592Z,12.80
2018-09-27T00:59:42.208Z,12.80
2018-09-27T01:02:10.653Z,12.80
2018-09-27T01:04:39.093Z,12.80
2018-09-27T01:07:07.508Z,12.70
2018-09-27T01:09:35.888Z,12.70
2018-09-27T01:12:04.305Z,12.70
2018-09-27T01:14:32.732Z,12.70
2018-09-27T01:17:01.166Z,12.70
2018-09-27T01:19:29.553Z,12.70
2018-09-27T01:21:58.045Z,12.60
2018-09-27T01:24:26.399Z,12.60
2018-09-27T01:26:54.811Z,12.60
2018-09-27T01:29:23.191Z,12.60
2018-09-27T01:31:51.618Z,12.60
2018-09-27T01:34:20.073Z,12.60
2018-09-27T01:36:48.622Z,12.60
2018-09-27T01:39:17.145Z,12.60
2018-09-27T01:41:45.691Z,12.60
2018-09-27T01:44:13.974Z,12.60
2018-09-27T01:46:42.290Z,12.50
2018-09-27T01:49:10.628Z,12.50
2018-09-27T01:51:39.011Z,12.50
2018-09-27T01:54:07.397Z,12.60
2018-09-27T01:56:35.774Z,12.60
2018-09-27T01:59:04.188Z,12.70
2018-09-27T02:01:32.544Z,12.70
2018-09-27T02:04:00.908Z,12.70
2018-09-27T02:06:29.266Z,12.70
2018-09-27T02:08:57.716Z,12.70
2018-09-27T02:11:26.123Z,12.60
2018-09-27T02:13:54.661Z,12.70
2018-09-27T02:16:23.157Z,12.60
2018-09-27T02:18:51.535Z,12.60
2018-09-27T02:21:19.845Z,12.60
2018-09-27T02:23:48.102Z,12.60
2018-09-27T02:26:16.394Z,12.60
2018-09-27T02:28:45.706Z,12.70
2018-09-27T02:31:14.198Z,12.70
2018-09-27T02:33:42.560Z,12.70
2018-09-27T02:36:10.861Z,12.70
2018-09-27T02:38:39.237Z,12.60
2018-09-27T02:41:07.633Z,12.60
2018-09-27T02:43:36.014Z,12.70
2018-09-27T02:46:04.420Z,12.70
2018-09-27T02:48:32.848Z,12.70
2018-09-27T02:51:01.230Z,12.80
2018-09-27T02:53:29.695Z,12.80
2018-09-27T02:55:58.284Z,12.80
2018-09-27T02:58:27.008Z,12.80
2018-09-27T03:00:55.450Z,12.80
2018-09-27T03:03:24.407Z,12.90
2018-09-27T03:05:53.829Z,12.90
2018-09-27T03:08:22.185Z,13.00
2018-09-27T03:10:50.619Z,13.00
2018-09-27T03:13:18.991Z,13.00
2018-09-27T03:15:48.145Z,13.00
2018-09-27T03:18:16.536Z,13.00
2018-09-27T03:20:44.950Z,13.10
2018-09-27T03:23:13.315Z,13.10
2018-09-27T03:25:41.739Z,13.10
2018-09-27T03:28:10.474Z,13.10
2018-09-27T03:30:38.851Z,13.20
2018-09-27T03:33:07.371Z,13.10
2018-09-27T03:35:36.615Z,13.20
2018-09-27T03:38:05.033Z,13.20
2018-09-27T03:40:33.507Z,13.20
2018-09-27T03:43:01.856Z,13.20
2018-09-27T03:45:30.305Z,13.20
2018-09-27T03:47:58.744Z,13.20
2018-09-27T03:50:27.123Z,13.20
2018-09-27T03:52:55.518Z,13.30
2018-09-27T03:55:23.817Z,13.30
2018-09-27T03:57:52.181Z,13.30
2018-09-27T04:00:20.636Z,13.30
2018-09-27T04:02:49.055Z,13.30
2018-09-27T04:05:17.423Z,13.30
2018-09-27T04:07:45.835Z,13.40
2018-09-27T04:10:14.270Z,13.50
2018-09-27T04:12:42.979Z,13.40
2018-09-27T04:15:11.736Z,13.40
2018-09-27T04:17:40.180Z,13.50
2018-09-27T04:20:08.654Z,13.50
2018-09-27T04:22:38.010Z,13.50
2018-09-27T04:25:06.417Z,13.50
2018-09-27T04:27:34.766Z,13.50
2018-09-27T04:30:03.085Z,13.50
2018-09-27T04:32:31.359Z,13.50
2018-09-27T04:34:59.674Z,13.50
2018-09-27T04:37:28.094Z,13.50
2018-09-27T04:39:56.485Z,13.50
2018-09-27T04:42:25.085Z,13.50
2018-09-27T04:44:53.620Z,13.50
2018-09-27T04:47:22.292Z,13.50
2018-09-27T04:49:50.823Z,13.50
2018-09-27T04:52:19.352Z,13.50
2018-09-27T04:54:47.914Z,13.50
2018-09-27T04:57:16.645Z,13.40
2018-09-27T04:59:47.074Z,13.50
2018-09-27T05:02:15.449Z,13.50
2018-09-27T05:04:43.778Z,13.50
2018-09-27T05:07:12.110Z,13.50
2018-09-27T05:09:41.328Z,13.50
2018-09-27T05:12:09.641Z,13.50
2018-09-27T05:14:37.941Z,13.50
2018-09-27T05:17:06.341Z,13.50
2018-09-27T05:19:34.710Z,13.50
2018-09-27T05:22:03.096Z,13.40
2018-09-27T05:24:31.456Z,13.50
2018-09-27T05:26:59.886Z,13.50
2018-09-27T05:29:28.507Z,13.50
2018-09-27T05:31:57.083Z,13.50
2018-09-27T05:34:25.590Z,13.50
2018-09-27T05:36:54.199Z,13.50
2018-09-27T05:39:22.860Z,13.50
2018-09-27T05:41:51.232Z,13.50
2018-09-27T05:44:19.595Z,13.50
2018-09-27T05:46:47.919Z,13.50
2018-09-27T05:49:17.247Z,13.60
2018-09-27T05:51:45.625Z,13.60
2018-09-27T05:54:14.013Z,13.60
2018-09-27T05:56:42.348Z,13.50
2018-09-27T05:59:10.712Z,13.60
2018-09-27T06:01:39.049Z,13.60
2018-09-27T06:04:07.400Z,13.60
2018-09-27T06:06:36.111Z,13.60
2018-09-27T06:09:11.168Z,13.60
2018-09-27T06:11:39.601Z,13.60
2018-09-27T06:14:08.140Z,13.60
2018-09-27T06:16:37.641Z,13.60
2018-09-27T06:19:06.255Z,13.70
2018-09-27T06:21:34.721Z,13.70
2018-09-27T06:24:03.092Z,13.80
2018-09-27T06:26:31.440Z,13.70
2018-09-27T06:28:59.725Z,13.70
2018-09-27T06:31:28.061Z,13.70
2018-09-27T06:33:56.343Z,13.80
2018-09-27T06:36:24.739Z,13.80
2018-09-27T06:38:53.208Z,13.90
2018-09-27T06:41:21.780Z,13.90
2018-09-27T06:43:50.232Z,13.90
2018-09-27T06:46:18.582Z,13.90
2018-09-27T06:48:46.958Z,13.90
2018-09-27T06:51:15.396Z,13.90
2018-09-27T06:53:43.764Z,13.90
2018-09-27T06:56:12.281Z,13.90
2018-09-27T06:58:41.278Z,13.80
2018-09-27T07:01:09.944Z,13.90
2018-09-27T07:03:38.438Z,13.90
2018-09-27T07:06:07.058Z,13.90
2018-09-27T07:08:35.468Z,13.90
2018-09-27T07:11:03.790Z,13.90
2018-09-27T07:13:32.177Z,14.00
2018-09-27T07:16:00.549Z,14.10
2018-09-27T07:18:29.564Z,14.20
2018-09-27T07:20:57.879Z,14.20
2018-09-27T07:23:26.460Z,14.30
2018-09-27T07:25:54.795Z,14.40
2018-09-27T07:28:23.185Z,14.40
2018-09-27T07:30:51.532Z,14.50
2018-09-27T07:33:19.979Z,14.50
2018-09-27T07:35:48.372Z,14.60
2018-09-27T07:38:16.870Z,14.60
2018-09-27T07:40:45.273Z,14.70
2018-09-27T07:43:13.632Z,14.70
2018-09-27T07:45:41.985Z,14.80
2018-09-27T07:48:10.344Z,14.80
2018-09-27T07:50:38.756Z,14.80
2018-09-27T07:53:07.282Z,14.90
2018-09-27T07:55:35.615Z,14.90
2018-09-27T07:58:03.986Z,15.00
2018-09-27T08:00:32.352Z,15.10
2018-09-27T08:03:00.678Z,15.10
2018-09-27T08:05:29.078Z,15.10
2018-09-27T08:07:57.435Z,15.20
2018-09-27T08:10:25.751Z,15.30
2018-09-27T08:12:54.339Z,15.40
2018-09-27T08:15:22.806Z,15.50
2018-09-27T08:17:51.237Z,15.50
2018-09-27T08:20:19.754Z,15.70
2018-09-27T08:22:48.040Z,15.80
2018-09-27T08:25:16.444Z,15.80
2018-09-27T08:27:45.821Z,15.90
2018-09-27T08:30:14.190Z,15.90
2018-09-27T08:32:42.545Z,16.00
2018-09-27T08:35:10.852Z,16.00
2018-09-27T08:37:39.160Z,16.10
2018-09-27T08:40:07.711Z,16.10
2018-09-27T08:42:36.109Z,16.20
2018-09-27T08:45:04.531Z,16.30
2018-09-27T08:47:32.901Z,16.40
2018-09-27T08:50:01.237Z,16.40
2018-09-27T08:52:29.537Z,16.50
2018-09-27T08:54:57.909Z,16.60
2018-09-27T08:57:27.631Z,16.60
2018-09-27T08:59:56.821Z,16.80
2018-09-27T09:02:25.249Z,16.80
2018-09-27T09:04:53.634Z,16.70
2018-09-27T09:07:21.970Z,16.90
2018-09-27T09:09:50.300Z,16.90
2018-09-27T09:12:18.628Z,16.90
2018-09-27T09:14:46.991Z,17.00
2018-09-27T09:17:15.315Z,17.10
2018-09-27T09:19:43.737Z,17.20
2018-09-27T09:22:12.035Z,17.30
2018-09-27T09:24:40.579Z,17.40
2018-09-27T09:27:08.866Z,17.40
2018-09-27T09:29:37.303Z,17.40
2018-09-27T09:32:05.652Z,17.50
2018-09-27T09:34:34.093Z,17.60
2018-09-27T09:37:02.413Z,17.60
2018-09-27T09:39:30.748Z,17.70
2018-09-27T09:41:59.116Z,17.70
2018-09-27T09:44:27.451Z,17.80
2018-09-27T09:46:55.867Z,17.90
2018-09-27T09:49:24.314Z,18.00
2018-09-27T09:51:52.736Z,18.20
2018-09-27T09:54:21.843Z,18.30
2018-09-27T09:56:50.294Z,18.40
2018-09-27T09:59:18.704Z,18.50
2018-09-27T10:01:47.061Z,18.60
2018-09-27T10:04:15.820Z,18.60
2018-09-27T10:06:44.224Z,18.60
2018-09-27T10:09:12.808Z,18.60
2018-09-27T10:11:41.256Z,18.60
2018-09-27T10:14:09.837Z,18.60
2018-09-27T10:16:39.238Z,18.70
2018-09-27T10:19:07.640Z,18.90
2018-09-27T10:21:36.127Z,19.00
2018-09-27T10:24:04.518Z,19.00
2018-09-27T10:26:32.873Z,18.90
2018-09-27T10:29:01.240Z,19.00
2018-09-27T10:31:29.626Z,19.00
2018-09-27T10:33:58.074Z,19.00
2018-09-27T10:36:26.446Z,19.20
2018-09-27T10:38:54.884Z,19.30
2018-09-27T10:41:23.364Z,19.30
2018-09-27T10:43:51.694Z,19.30
2018-09-27T10:46:20.171Z,19.50
2018-09-27T10:48:48.653Z,19.40
2018-09-27T10:51:17.217Z,19.40
2018-09-27T10:53:45.733Z,19.50
2018-09-27T10:56:14.147Z,19.60
2018-09-27T10:58:42.629Z,19.70
2018-09-27T11:01:10.991Z,19.70
2018-09-27T11:03:39.359Z,19.70
2018-09-27T11:06:08.042Z,19.80
2018-09-27T11:08:36.455Z,19.70
2018-09-27T11:11:04.937Z,19.90
2018-09-27T11:13:33.382Z,19.90
2018-09-27T11:16:01.802Z,19.90
2018-09-27T11:18:30.208Z,20.00
2018-09-27T11:20:58.860Z,20.10
2018-09-27T11:23:27.478Z,20.10
2018-09-27T11:25:56.017Z,20.10
2018-09-27T11:28:24.571Z,20.10
2018-09-27T11:30:58.307Z,20.30
2018-09-27T11:33:26.759Z,20.30
2018-09-27T11:35:55.172Z,20.40
2018-09-27T11:38:23.559Z,20.50
2018-09-27T11:40:51.900Z,20.60
2018-09-27T11:43:20.425Z,20.50
2018-09-27T11:45:48.792Z,20.60
2018-09-27T11:48:17.170Z,20.70
2018-09-27T11:50:45.571Z,20.80
2018-09-27T11:53:13.971Z,20.80
2018-09-27T11:55:43.192Z,20.80
2018-09-27T11:58:11.552Z,20.80
2018-09-27T12:00:39.996Z,20.90
2018-09-27T12:03:08.333Z,20.90
2018-09-27T12:05:36.726Z,21.00
2018-09-27T12:08:05.169Z,21.00
2018-09-27T12:10:33.630Z,21.10
2018-09-27T12:13:03.272Z,21.10
2018-09-27T12:15:31.679Z,21.10
2018-09-27T12:18:00.062Z,21.20
2018-09-27T12:20:28.527Z,21.20
2018-09-27T12:22:56.973Z,21.30
2018-09-27T12:25:25.361Z,21.30
2018-09-27T12:27:53.757Z,21.40
2018-09-27T12:30:22.100Z,21.50
2018-09-27T12:32:50.567Z,21.50
2018-09-27T12:35:18.919Z,21.50
2018-09-27T12:37:47.278Z,21.60
2018-09-27T12:40:15.687Z,21.70
2018-09-27T12:42:44.280Z,21.70
2018-09-27T12:45:12.620Z,21.80
2018-09-27T12:47:40.905Z,21.90
2018-09-27T12:50:09.286Z,21.70
2018-09-27T12:52:37.778Z,21.70
2018-09-27T12:55:06.222Z,21.70
2018-09-27T12:57:35.229Z,21.80
2018-09-27T13:00:03.823Z,21.80
2018-09-27T13:02:33.461Z,21.90
2018-09-27T13:05:01.806Z,21.90
2018-09-27T13:07:30.132Z,22.00
2018-09-27T13:09:58.644Z,22.10
2018-09-27T13:12:26.867Z,22.10
2018-09-27T13:14:55.191Z,22.10
2018-09-27T13:17:23.546Z,22.30
2018-09-27T13:19:52.131Z,22.30
2018-09-27T13:22:20.466Z,22.30
2018-09-27T13:24:48.787Z,22.30
2018-09-27T13:27:17.765Z,22.30
2018-09-27T13:29:46.697Z,22.40
2018-09-27T13:32:15.099Z,22.30
2018-09-27T13:34:43.598Z,22.30
2018-09-27T13:37:12.031Z,22.30
2018-09-27T13:39:40.437Z,22.40
2018-09-27T13:42:08.760Z,22.40
2018-09-27T13:44:37.072Z,22.40
2018-09-27T13:47:05.489Z,22.40
2018-09-27T13:49:33.804Z,22.50
2018-09-27T13:52:02.145Z,22.30
2018-09-27T13:54:30.462Z,22.50
2018-09-27T13:56:58.896Z,22.50
2018-09-27T13:59:27.244Z,22.50
2018-09-27T14:01:55.562Z,22.40
2018-09-27T14:04:23.903Z,22.40
2018-09-27T14:06:52.284Z,22.40
2018-09-27T14:09:20.688Z,22.50
2018-09-27T14:11:49.116Z,22.50
2018-09-27T14:14:20.119Z,22.60
2018-09-27T14:16:51.814Z,22.60
2018-09-27T14:19:22.353Z,22.50
2018-09-27T14:21:50.717Z,22.60
2018-09-27T14:24:19.253Z,22.60
2018-09-27T14:26:47.644Z,22.60
2018-09-27T14:29:15.992Z,22.70
2018-09-27T14:31:44.501Z,22.80
2018-09-27T14:34:12.873Z,22.70
2018-09-27T14:36:41.244Z,22.80
2018-09-27T14:39:10.355Z,22.80
2018-09-27T14:41:38.950Z,22.90
2018-09-27T14:44:07.523Z,22.80
2018-09-27T14:46:35.990Z,22.80
2018-09-27T14:49:04.624Z,22.80
2018-09-27T14:51:33.026Z,22.60
2018-09-27T14:54:01.360Z,22.60
2018-09-27T14:56:29.714Z,22.50
2018-09-27T14:58:58.195Z,22.40
2018-09-27T15:01:26.695Z,22.40
2018-09-27T15:03:55.075Z,22.50
2018-09-27T15:06:23.419Z,22.50
2018-09-27T15:08:51.754Z,22.50
2018-09-27T15:11:20.207Z,22.60
2018-09-27T15:13:48.636Z,22.50
2018-09-27T15:16:16.954Z,22.40
2018-09-27T15:18:45.277Z,22.40
2018-09-27T15:21:13.555Z,22.50
2018-09-27T15:23:41.994Z,22.60
2018-09-27T15:26:10.426Z,22.60
2018-09-27T15:28:38.800Z,22.60
2018-09-27T15:31:07.322Z,22.60
2018-09-27T15:33:35.749Z,22.60
2018-09-27T15:36:04.528Z,22.70
2018-09-27T15:38:33.572Z,22.80
2018-09-27T15:41:02.194Z,23.00
2018-09-27T15:43:30.764Z,22.90
2018-09-27T15:45:59.119Z,22.70
2018-09-27T15:48:27.398Z,22.80
2018-09-27T15:50:56.086Z,22.60
2018-09-27T15:53:24.476Z,22.60
2018-09-27T15:55:53.043Z,22.50
2018-09-27T15:58:21.499Z,22.50
2018-09-27T16:00:49.899Z,22.50
2018-09-27T16:03:18.259Z,22.30
2018-09-27T16:05:46.546Z,22.40
2018-09-27T16:08:14.872Z,22.40
2018-09-27T16:10:43.364Z,22.50
2018-09-27T16:13:11.723Z,22.90
2018-09-27T16:15:40.170Z,22.80
2018-09-27T16:18:08.700Z,22.70
2018-09-27T16:20:37.729Z,22.70
2018-09-27T16:23:06.201Z,22.70
2018-09-27T16:25:34.542Z,22.50
2018-09-27T16:28:03.035Z,22.40
2018-09-27T16:30:31.947Z,22.40
2018-09-27T16:33:00.259Z,22.20
2018-09-27T16:35:28.645Z,22.00
2018-09-27T16:37:57.314Z,21.90
2018-09-27T16:40:25.741Z,21.80
2018-09-27T16:42:54.109Z,21.60
2018-09-27T16:45:22.523Z,21.50
2018-09-27T16:47:50.996Z,21.30
2018-09-27T16:50:19.433Z,21.20
2018-09-27T16:52:47.963Z,21.00
2018-09-27T16:55:16.347Z,20.80
2018-09-27T16:57:45.697Z,20.70
2018-09-27T17:00:14.123Z,20.60
2018-09-27T17:02:42.637Z,20.50
2018-09-27T17:05:11.017Z,20.40
2018-09-27T17:07:39.412Z,20.30
2018-09-27T17:10:07.842Z,20.10
2018-09-27T17:12:36.258Z,20.00
2018-09-27T17:15:04.756Z,19.90
2018-09-27T17:17:33.121Z,19.80
2018-09-27T17:20:01.555Z,19.70
2018-09-27T17:22:30.031Z,19.60
2018-09-27T17:24:58.519Z,19.40
2018-09-27T17:27:26.846Z,19.30
2018-09-27T17:29:55.203Z,19.30
2018-09-27T17:32:23.598Z,19.30
2018-09-27T17:34:52.093Z,19.20
2018-09-27T17:37:20.525Z,19.10
2018-09-27T17:39:48.920Z,19.00
2018-09-27T17:42:17.369Z,19.00
2018-09-27T17:44:45.734Z,19.00
2018-09-27T17:47:14.260Z,18.90
2018-09-27T17:49:42.680Z,18.80
2018-09-27T17:52:11.024Z,18.70
2018-09-27T17:54:39.547Z,18.70
2018-09-27T17:57:08.160Z,18.60
2018-09-27T17:59:36.605Z,18.60
2018-09-27T18:02:04.972Z,18.60
2018-09-27T18:04:33.737Z,18.50
2018-09-27T18:07:02.105Z,18.50
2018-09-27T18:09:30.431Z,18.40
2018-09-27T18:11:58.945Z,18.30
2018-09-27T18:14:27.389Z,18.30
2018-09-27T18:16:55.740Z,18.30
2018-09-27T18:19:25.313Z,18.30
2018-09-27T18:21:54.872Z,18.20
2018-09-27T18:24:23.300Z,18.10
2018-09-27T18:26:51.643Z,18.00
2018-09-27T18:29:19.998Z,18.00
2018-09-27T18:31:48.331Z,17.90
2018-09-27T18:34:16.756Z,17.80
2018-09-27T18:36:45.108Z,17.70
2018-09-27T18:39:13.748Z,17.70
2018-09-27T18:41:42.633Z,17.60
2018-09-27T18:44:11.137Z,17.50
2018-09-27T18:46:39.529Z,17.50
2018-09-27T18:49:08.823Z,17.40
2018-09-27T18:51:37.435Z,17.40
2018-09-27T18:54:06.077Z,17.40
2018-09-27T18:56:34.566Z,17.40
2018-09-27T18:59:03.918Z,17.30
2018-09-27T19:01:32.455Z,17.30
2018-09-27T19:04:00.811Z,17.30
2018-09-27T19:06:29.169Z,17.30
2018-09-27T19:08:57.471Z,17.30
2018-09-27T19:11:25.845Z,17.20
2018-09-27T19:13:54.574Z,17.10
2018-09-27T19:16:22.925Z,17.10
2018-09-27T19:18:51.278Z,17.10
2018-09-27T19:21:19.657Z,17.10
2018-09-27T19:23:48.111Z,17.10
2018-09-27T19:26:16.592Z,17.00
2018-09-27T19:28:44.963Z,17.10
2018-09-27T19:31:13.454Z,17.10
2018-09-27T19:33:41.958Z,16.90
2018-09-27T19:36:10.467Z,16.90
2018-09-27T19:38:38.898Z,16.70
2018-09-27T19:41:07.288Z,16.60
2018-09-27T19:43:35.661Z,16.50
2018-09-27T19:46:04.008Z,16.50
2018-09-27T19:48:32.453Z,16.40
2018-09-27T19:51:00.797Z,16.30
2018-09-27T19:53:29.159Z,16.20
2018-09-27T19:55:57.650Z,16.20
2018-09-27T19:58:26.119Z,16.10
2018-09-27T20:01:02.690Z,16.00
2018-09-27T20:03:31.101Z,16.00
2018-09-27T20:05:59.451Z,15.90
2018-09-27T20:08:27.860Z,15.80
2018-09-27T20:10:56.200Z,15.70
2018-09-27T20:13:24.578Z,15.60
2018-09-27T20:15:52.906Z,15.50
2018-09-27T20:18:21.335Z,15.40
2018-09-27T20:20:49.779Z,15.30
2018-09-27T20:23:18.158Z,15.20
2018-09-27T20:25:46.580Z,15.20
2018-09-27T20:28:15.701Z,15.10
2018-09-27T20:30:43.989Z,15.10
2018-09-27T20:33:12.372Z,15.10
2018-09-27T20:35:40.736Z,15.10
2018-09-27T20:38:10.238Z,15.10
2018-09-27T20:40:38.668Z,15.00
2018-09-27T20:43:07.008Z,15.00
2018-09-27T20:45:35.420Z,14.90
2018-09-27T20:48:03.764Z,14.90
2018-09-27T20:50:32.095Z,15.00
2018-09-27T20:53:00.473Z,14.90
2018-09-27T20:55:28.871Z,14.90
2018-09-27T20:57:57.411Z,14.80
2018-09-27T21:00:25.794Z,14.80
2018-09-27T21:02:54.180Z,14.80
2018-09-27T21:05:22.792Z,14.80
2018-09-27T21:07:52.475Z,14.80
2018-09-27T21:10:20.846Z,14.90
2018-09-27T21:12:49.399Z,15.00
2018-09-27T21:15:18.146Z,14.90
2018-09-27T21:17:46.468Z,14.90
2018-09-27T21:20:14.774Z,15.00
2018-09-27T21:22:43.140Z,15.00
2018-09-27T21:25:11.498Z,15.00
2018-09-27T21:27:39.936Z,15.00
2018-09-27T21:30:08.428Z,14.90
2018-09-27T21:32:37.051Z,15.00
2018-09-27T21:35:05.746Z,14.90
2018-09-27T21:37:34.688Z,14.90
2018-09-27T21:40:03.272Z,15.10
2018-09-27T21:42:32.001Z,15.10
2018-09-27T21:45:00.356Z,15.10
2018-09-27T21:47:28.716Z,15.00
2018-09-27T21:49:57.233Z,14.90
2018-09-27T21:52:25.645Z,14.80
2018-09-27T21:54:53.978Z,14.90
2018-09-27T21:57:22.340Z,14.80
2018-09-27T21:59:50.736Z,14.80
2018-09-27T22:02:19.117Z,14.70
2018-09-27T22:04:47.474Z,14.70
2018-09-27T22:07:15.817Z,14.60
2018-09-27T22:09:44.131Z,14.60
2018-09-27T22:12:12.537Z,14.50
2018-09-27T22:14:41.359Z,14.40
2018-09-27T22:17:09.781Z,14.40
2018-09-27T22:19:38.506Z,14.50
2018-09-27T22:22:06.968Z,14.40
2018-09-27T22:24:35.425Z,14.40
2018-09-27T22:27:03.900Z,14.30
2018-09-27T22:29:32.278Z,14.30
2018-09-27T22:32:00.630Z,14.30
2018-09-27T22:34:29.072Z,14.30
2018-09-27T22:36:58.430Z,14.20
2018-09-27T22:39:26.918Z,14.20
2018-09-27T22:41:55.259Z,14.20
2018-09-27T22:44:23.664Z,14.10
2018-09-27T22:46:52.065Z,14.10
2018-09-27T22:49:21.193Z,14.10
2018-09-27T22:51:49.862Z,14.10
2018-09-27T22:54:18.472Z,14.10
2018-09-27T22:56:47.059Z,14.10
2018-09-27T22:59:15.497Z,14.00
2018-09-27T23:01:43.984Z,13.90
2018-09-27T23:04:12.293Z,13.90
2018-09-27T23:06:40.670Z,13.80
2018-09-27T23:09:09.054Z,13.90
2018-09-27T23:11:37.405Z,13.70
2018-09-27T23:14:05.731Z,13.80
2018-09-27T23:16:34.080Z,13.70
2018-09-27T23:19:02.764Z,13.70
2018-09-27T23:21:31.067Z,13.60
2018-09-27T23:23:59.592Z,13.50
2018-09-27T23:26:28.285Z,13.60
2018-09-27T23:28:56.717Z,13.40
2018-09-27T23:31:25.142Z,13.40
2018-09-27T23:34:00.232Z,13.30
2018-09-27T23:36:29.174Z,13.20
2018-09-27T23:38:57.592Z,13.20
2018-09-27T23:41:26.117Z,13.20
2018-09-27T23:43:54.536Z,13.20
2018-09-27T23:46:22.884Z,13.10
2018-09-27T23:48:51.394Z,13.10
2018-09-27T23:51:21.551Z,13.00
2018-09-27T23:53:49.886Z,13.10
2018-09-27T23:56:18.310Z,13.00
2018-09-27T23:58:47.175Z,12.90
